sensor_id;sensor_type;location;lat;lon;timestamp;temperature;humidity
66670;DHT22;53568;52.164;4.472;2022-09-17T00:00:07;13.60;70.44
66670;DHT22;53568;52.164;4.472;2022-09-17T00:02:33;13.81;70.02
66670;DHT22;53568;52.164;4.472;2022-09-17T00:04:59;13.88;69.85
66670;DHT22;53568;52.164;4.472;2022-09-17T00:07:24;13.91;69.64
66670;DHT22;53568;52.164;4.472;2022-09-17T00:09:49;13.94;68.36
66670;DHT22;53568;52.164;4.472;2022-09-17T00:12:15;13.87;66.13
66670;DHT22;53568;52.164;4.472;2022-09-17T00:14:40;13.16;70.02
66670;DHT22;53568;52.164;4.472;2022-09-17T00:17:06;12.75;73.13
66670;DHT22;53568;52.164;4.472;2022-09-17T00:19:32;12.69;75.19
66670;DHT22;53568;52.164;4.472;2022-09-17T00:21:57;12.66;75.78
66670;DHT22;53568;52.164;4.472;2022-09-17T00:24:23;12.77;75.22
66670;DHT22;53568;52.164;4.472;2022-09-17T00:26:49;12.70;75.54
66670;DHT22;53568;52.164;4.472;2022-09-17T00:29:15;12.76;73.81
66670;DHT22;53568;52.164;4.472;2022-09-17T00:31:43;12.73;74.36
66670;DHT22;53568;52.164;4.472;2022-09-17T00:34:09;12.73;73.73
66670;DHT22;53568;52.164;4.472;2022-09-17T00:36:37;12.80;74.21
66670;DHT22;53568;52.164;4.472;2022-09-17T00:39:04;12.90;73.93
66670;DHT22;53568;52.164;4.472;2022-09-17T00:41:32;12.97;72.93
66670;DHT22;53568;52.164;4.472;2022-09-17T00:44:00;13.00;71.94
66670;DHT22;53568;52.164;4.472;2022-09-17T00:46:39;13.09;69.84
66670;DHT22;53568;52.164;4.472;2022-09-17T00:49:27;13.27;68.63
66670;DHT22;53568;52.164;4.472;2022-09-17T00:54:23;13.67;66.05
66670;DHT22;53568;52.164;4.472;2022-09-17T00:56:50;13.75;65.35
66670;DHT22;53568;52.164;4.472;2022-09-17T00:59:18;13.91;65.25
66670;DHT22;53568;52.164;4.472;2022-09-17T01:01:44;14.01;62.89
66670;DHT22;53568;52.164;4.472;2022-09-17T01:04:21;14.17;62.21
66670;DHT22;53568;52.164;4.472;2022-09-17T01:07:12;14.31;62.64
66670;DHT22;53568;52.164;4.472;2022-09-17T01:09:53;14.43;63.23
66670;DHT22;53568;52.164;4.472;2022-09-17T01:13:02;14.48;62.50
66670;DHT22;53568;52.164;4.472;2022-09-17T01:15:41;14.36;62.24
66670;DHT22;53568;52.164;4.472;2022-09-17T01:18:19;14.43;61.62
66670;DHT22;53568;52.164;4.472;2022-09-17T01:26:49;14.48;61.64
66670;DHT22;53568;52.164;4.472;2022-09-17T01:32:38;14.61;62.77
66670;DHT22;53568;52.164;4.472;2022-09-17T01:41:01;14.75;60.11
66670;DHT22;53568;52.164;4.472;2022-09-17T01:44:03;14.77;59.95
66670;DHT22;53568;52.164;4.472;2022-09-17T01:46:42;14.86;60.01
66670;DHT22;53568;52.164;4.472;2022-09-17T01:49:13;14.80;60.57
66670;DHT22;53568;52.164;4.472;2022-09-17T01:51:44;14.68;62.15
66670;DHT22;53568;52.164;4.472;2022-09-17T01:54:16;14.42;64.26
66670;DHT22;53568;52.164;4.472;2022-09-17T01:56:52;14.11;65.69
66670;DHT22;53568;52.164;4.472;2022-09-17T01:59:25;13.98;66.03
66670;DHT22;53568;52.164;4.472;2022-09-17T02:02:06;14.02;66.10
66670;DHT22;53568;52.164;4.472;2022-09-17T02:04:48;14.01;65.44
66670;DHT22;53568;52.164;4.472;2022-09-17T02:07:18;14.01;63.92
66670;DHT22;53568;52.164;4.472;2022-09-17T02:10:10;14.19;63.01
66670;DHT22;53568;52.164;4.472;2022-09-17T02:12:50;14.25;60.37
66670;DHT22;53568;52.164;4.472;2022-09-17T02:15:27;14.35;60.30
66670;DHT22;53568;52.164;4.472;2022-09-17T02:18:02;14.43;58.99
66670;DHT22;53568;52.164;4.472;2022-09-17T02:20:44;14.46;58.14
66670;DHT22;53568;52.164;4.472;2022-09-17T02:23:19;14.55;59.35
66670;DHT22;53568;52.164;4.472;2022-09-17T02:26:18;14.46;58.00
66670;DHT22;53568;52.164;4.472;2022-09-17T02:28:48;14.43;58.42
66670;DHT22;53568;52.164;4.472;2022-09-17T02:31:15;14.31;60.82
66670;DHT22;53568;52.164;4.472;2022-09-17T02:33:46;14.26;60.59
66670;DHT22;53568;52.164;4.472;2022-09-17T02:36:15;14.26;61.34
66670;DHT22;53568;52.164;4.472;2022-09-17T02:38:44;14.21;61.14
66670;DHT22;53568;52.164;4.472;2022-09-17T02:41:17;14.17;60.99
66670;DHT22;53568;52.164;4.472;2022-09-17T02:43:57;14.24;60.89
66670;DHT22;53568;52.164;4.472;2022-09-17T02:49:18;14.43;60.72
66670;DHT22;53568;52.164;4.472;2022-09-17T02:54:33;14.25;62.90
66670;DHT22;53568;52.164;4.472;2022-09-17T03:00:03;14.08;62.51
66670;DHT22;53568;52.164;4.472;2022-09-17T03:02:44;13.91;64.63
66670;DHT22;53568;52.164;4.472;2022-09-17T03:05:13;13.82;65.34
66670;DHT22;53568;52.164;4.472;2022-09-17T03:07:41;13.88;64.93
66670;DHT22;53568;52.164;4.472;2022-09-17T03:10:07;13.97;64.32
66670;DHT22;53568;52.164;4.472;2022-09-17T03:12:34;13.97;64.29
66670;DHT22;53568;52.164;4.472;2022-09-17T03:15:00;14.05;64.87
66670;DHT22;53568;52.164;4.472;2022-09-17T03:17:25;14.08;64.62
66670;DHT22;53568;52.164;4.472;2022-09-17T03:19:51;14.22;64.01
66670;DHT22;53568;52.164;4.472;2022-09-17T03:22:19;14.22;63.63
66670;DHT22;53568;52.164;4.472;2022-09-17T03:24:44;14.22;63.31
66670;DHT22;53568;52.164;4.472;2022-09-17T03:27:10;14.11;61.07
66670;DHT22;53568;52.164;4.472;2022-09-17T03:29:36;14.02;59.91
66670;DHT22;53568;52.164;4.472;2022-09-17T03:32:02;14.05;59.21
66670;DHT22;53568;52.164;4.472;2022-09-17T03:34:27;14.05;58.81
66670;DHT22;53568;52.164;4.472;2022-09-17T03:36:53;14.07;58.97
66670;DHT22;53568;52.164;4.472;2022-09-17T03:39:18;14.14;59.28
66670;DHT22;53568;52.164;4.472;2022-09-17T03:41:44;13.97;63.67
66670;DHT22;53568;52.164;4.472;2022-09-17T03:44:09;14.04;64.04
66670;DHT22;53568;52.164;4.472;2022-09-17T03:46:35;14.07;64.01
66670;DHT22;53568;52.164;4.472;2022-09-17T03:49:01;14.00;65.18
66670;DHT22;53568;52.164;4.472;2022-09-17T03:51:27;14.07;64.23
66670;DHT22;53568;52.164;4.472;2022-09-17T03:53:53;14.01;61.16
66670;DHT22;53568;52.164;4.472;2022-09-17T03:56:18;14.04;60.67
66670;DHT22;53568;52.164;4.472;2022-09-17T03:58:44;14.12;59.97
66670;DHT22;53568;52.164;4.472;2022-09-17T04:01:09;14.19;58.30
66670;DHT22;53568;52.164;4.472;2022-09-17T04:03:34;14.17;57.89
66670;DHT22;53568;52.164;4.472;2022-09-17T04:06:00;14.25;57.22
66670;DHT22;53568;52.164;4.472;2022-09-17T04:08:26;14.35;56.37
66670;DHT22;53568;52.164;4.472;2022-09-17T04:10:52;14.46;54.49
66670;DHT22;53568;52.164;4.472;2022-09-17T04:13:18;14.46;54.81
66670;DHT22;53568;52.164;4.472;2022-09-17T04:15:45;14.51;54.16
66670;DHT22;53568;52.164;4.472;2022-09-17T04:18:11;14.53;54.77
66670;DHT22;53568;52.164;4.472;2022-09-17T04:20:36;14.56;54.97
66670;DHT22;53568;52.164;4.472;2022-09-17T04:23:02;14.58;60.62
66670;DHT22;53568;52.164;4.472;2022-09-17T04:25:27;14.39;63.40
66670;DHT22;53568;52.164;4.472;2022-09-17T04:27:53;13.97;65.82
66670;DHT22;53568;52.164;4.472;2022-09-17T04:30:19;13.67;67.07
66670;DHT22;53568;52.164;4.472;2022-09-17T04:32:45;13.46;65.55
66670;DHT22;53568;52.164;4.472;2022-09-17T04:35:11;13.44;66.18
66670;DHT22;53568;52.164;4.472;2022-09-17T04:37:38;13.33;66.49
66670;DHT22;53568;52.164;4.472;2022-09-17T04:40:04;13.27;67.05
66670;DHT22;53568;52.164;4.472;2022-09-17T04:42:30;13.24;67.52
66670;DHT22;53568;52.164;4.472;2022-09-17T04:44:55;13.26;67.60
66670;DHT22;53568;52.164;4.472;2022-09-17T04:47:22;13.06;68.61
66670;DHT22;53568;52.164;4.472;2022-09-17T04:49:48;13.13;68.66
66670;DHT22;53568;52.164;4.472;2022-09-17T04:52:13;13.06;69.50
66670;DHT22;53568;52.164;4.472;2022-09-17T04:54:39;13.07;69.89
66670;DHT22;53568;52.164;4.472;2022-09-17T04:57:05;12.93;71.10
66670;DHT22;53568;52.164;4.472;2022-09-17T04:59:30;12.96;71.20
66670;DHT22;53568;52.164;4.472;2022-09-17T05:01:56;13.00;70.70
66670;DHT22;53568;52.164;4.472;2022-09-17T05:04:22;13.03;70.30
66670;DHT22;53568;52.164;4.472;2022-09-17T05:06:47;13.11;70.14
66670;DHT22;53568;52.164;4.472;2022-09-17T05:09:12;13.16;70.63
66670;DHT22;53568;52.164;4.472;2022-09-17T05:11:39;13.27;70.42
66670;DHT22;53568;52.164;4.472;2022-09-17T05:14:04;13.27;69.03
66670;DHT22;53568;52.164;4.472;2022-09-17T05:16:30;13.34;68.42
66670;DHT22;53568;52.164;4.472;2022-09-17T05:18:55;13.39;65.54
66670;DHT22;53568;52.164;4.472;2022-09-17T05:21:22;13.48;64.19
66670;DHT22;53568;52.164;4.472;2022-09-17T05:23:48;13.63;64.64
66670;DHT22;53568;52.164;4.472;2022-09-17T05:26:13;13.81;65.11
66670;DHT22;53568;52.164;4.472;2022-09-17T05:28:40;13.89;65.81
66670;DHT22;53568;52.164;4.472;2022-09-17T05:31:05;13.70;68.25
66670;DHT22;53568;52.164;4.472;2022-09-17T05:33:31;13.75;68.88
66670;DHT22;53568;52.164;4.472;2022-09-17T05:35:58;13.74;68.29
66670;DHT22;53568;52.164;4.472;2022-09-17T05:38:24;13.74;67.56
66670;DHT22;53568;52.164;4.472;2022-09-17T05:40:50;13.81;67.06
66670;DHT22;53568;52.164;4.472;2022-09-17T05:43:16;13.75;63.79
66670;DHT22;53568;52.164;4.472;2022-09-17T05:45:42;13.77;63.24
66670;DHT22;53568;52.164;4.472;2022-09-17T05:48:13;13.41;65.33
66670;DHT22;53568;52.164;4.472;2022-09-17T05:50:39;12.83;70.91
66670;DHT22;53568;52.164;4.472;2022-09-17T05:53:07;12.39;70.93
66670;DHT22;53568;52.164;4.472;2022-09-17T05:55:34;12.24;71.36
66670;DHT22;53568;52.164;4.472;2022-09-17T05:57:59;12.20;71.18
66670;DHT22;53568;52.164;4.472;2022-09-17T06:00:25;12.24;71.11
66670;DHT22;53568;52.164;4.472;2022-09-17T06:02:55;12.33;71.32
66670;DHT22;53568;52.164;4.472;2022-09-17T06:05:22;12.41;70.70
66670;DHT22;53568;52.164;4.472;2022-09-17T06:07:48;12.60;70.67
66670;DHT22;53568;52.164;4.472;2022-09-17T06:10:14;12.62;70.81
66670;DHT22;53568;52.164;4.472;2022-09-17T06:12:40;12.62;71.38
66670;DHT22;53568;52.164;4.472;2022-09-17T06:15:06;12.75;71.66
66670;DHT22;53568;52.164;4.472;2022-09-17T06:17:33;12.69;72.72
66670;DHT22;53568;52.164;4.472;2022-09-17T06:19:59;12.79;72.95
66670;DHT22;53568;52.164;4.472;2022-09-17T06:22:25;12.69;72.97
66670;DHT22;53568;52.164;4.472;2022-09-17T06:24:50;12.56;71.76
66670;DHT22;53568;52.164;4.472;2022-09-17T06:27:16;12.50;70.76
66670;DHT22;53568;52.164;4.472;2022-09-17T06:29:41;12.48;70.85
66670;DHT22;53568;52.164;4.472;2022-09-17T06:32:07;12.57;71.19
66670;DHT22;53568;52.164;4.472;2022-09-17T06:34:35;12.70;70.43
66670;DHT22;53568;52.164;4.472;2022-09-17T06:37:01;12.83;70.77
66670;DHT22;53568;52.164;4.472;2022-09-17T06:39:27;12.99;70.16
66670;DHT22;53568;52.164;4.472;2022-09-17T06:41:52;13.23;69.78
66670;DHT22;53568;52.164;4.472;2022-09-17T06:44:18;13.24;69.36
66670;DHT22;53568;52.164;4.472;2022-09-17T06:46:43;13.39;69.04
66670;DHT22;53568;52.164;4.472;2022-09-17T06:49:09;13.54;68.50
66670;DHT22;53568;52.164;4.472;2022-09-17T06:51:35;13.78;67.82
66670;DHT22;53568;52.164;4.472;2022-09-17T06:54:01;13.98;67.37
66670;DHT22;53568;52.164;4.472;2022-09-17T06:56:26;14.08;65.04
66670;DHT22;53568;52.164;4.472;2022-09-17T06:58:53;14.05;62.28
66670;DHT22;53568;52.164;4.472;2022-09-17T07:01:18;14.12;59.94
66670;DHT22;53568;52.164;4.472;2022-09-17T07:03:44;14.12;58.60
66670;DHT22;53568;52.164;4.472;2022-09-17T07:06:11;14.18;57.04
66670;DHT22;53568;52.164;4.472;2022-09-17T07:08:37;14.17;55.84
66670;DHT22;53568;52.164;4.472;2022-09-17T07:11:04;14.21;55.19
66670;DHT22;53568;52.164;4.472;2022-09-17T07:13:29;14.26;55.90
66670;DHT22;53568;52.164;4.472;2022-09-17T07:16:00;14.45;55.10
66670;DHT22;53568;52.164;4.472;2022-09-17T07:18:26;14.59;54.53
66670;DHT22;53568;52.164;4.472;2022-09-17T07:20:59;14.63;54.24
66670;DHT22;53568;52.164;4.472;2022-09-17T07:23:28;14.75;53.49
66670;DHT22;53568;52.164;4.472;2022-09-17T07:25:59;14.85;55.19
66670;DHT22;53568;52.164;4.472;2022-09-17T07:28:26;14.85;57.86
66670;DHT22;53568;52.164;4.472;2022-09-17T07:30:53;14.77;60.86
66670;DHT22;53568;52.164;4.472;2022-09-17T07:33:25;14.48;64.79
66670;DHT22;53568;52.164;4.472;2022-09-17T07:35:56;13.77;67.32
66670;DHT22;53568;52.164;4.472;2022-09-17T07:38:23;13.33;67.60
66670;DHT22;53568;52.164;4.472;2022-09-17T07:40:57;13.13;69.11
66670;DHT22;53568;52.164;4.472;2022-09-17T07:43:28;12.95;68.73
66670;DHT22;53568;52.164;4.472;2022-09-17T07:45:56;12.89;68.83
66670;DHT22;53568;52.164;4.472;2022-09-17T07:48:23;12.90;69.32
66670;DHT22;53568;52.164;4.472;2022-09-17T07:50:48;12.97;68.35
66670;DHT22;53568;52.164;4.472;2022-09-17T07:53:14;13.27;68.19
66670;DHT22;53568;52.164;4.472;2022-09-17T07:55:41;13.37;68.21
66670;DHT22;53568;52.164;4.472;2022-09-17T07:58:07;13.68;68.34
66670;DHT22;53568;52.164;4.472;2022-09-17T08:00:32;13.82;67.72
66670;DHT22;53568;52.164;4.472;2022-09-17T08:02:58;13.94;67.32
66670;DHT22;53568;52.164;4.472;2022-09-17T08:05:24;13.98;68.33
66670;DHT22;53568;52.164;4.472;2022-09-17T08:07:51;13.89;68.15
66670;DHT22;53568;52.164;4.472;2022-09-17T08:10:17;13.75;69.04
66670;DHT22;53568;52.164;4.472;2022-09-17T08:12:55;13.65;68.61
66670;DHT22;53568;52.164;4.472;2022-09-17T08:15:21;13.64;68.10
66670;DHT22;53568;52.164;4.472;2022-09-17T08:17:48;13.65;67.85
66670;DHT22;53568;52.164;4.472;2022-09-17T08:20:15;13.74;66.89
66670;DHT22;53568;52.164;4.472;2022-09-17T08:22:41;14.00;66.86
66670;DHT22;53568;52.164;4.472;2022-09-17T08:25:08;14.08;66.99
66670;DHT22;53568;52.164;4.472;2022-09-17T08:27:35;14.08;68.09
66670;DHT22;53568;52.164;4.472;2022-09-17T08:30:02;14.21;67.89
66670;DHT22;53568;52.164;4.472;2022-09-17T08:32:28;14.21;66.82
66670;DHT22;53568;52.164;4.472;2022-09-17T08:34:54;14.26;65.00
66670;DHT22;53568;52.164;4.472;2022-09-17T08:37:22;14.39;62.86
66670;DHT22;53568;52.164;4.472;2022-09-17T08:39:48;14.53;63.24
66670;DHT22;53568;52.164;4.472;2022-09-17T08:42:40;14.75;63.55
66670;DHT22;53568;52.164;4.472;2022-09-17T08:45:12;14.95;63.52
66670;DHT22;53568;52.164;4.472;2022-09-17T08:47:41;14.85;62.10
66670;DHT22;53568;52.164;4.472;2022-09-17T08:50:26;15.03;61.82
66670;DHT22;53568;52.164;4.472;2022-09-17T08:56:02;14.15;68.78
66670;DHT22;53568;52.164;4.472;2022-09-17T09:04:08;14.04;71.25
66670;DHT22;53568;52.164;4.472;2022-09-17T09:06:43;14.02;71.09
66670;DHT22;53568;52.164;4.472;2022-09-17T09:09:15;14.07;71.26
66670;DHT22;53568;52.164;4.472;2022-09-17T09:11:41;14.26;69.97
66670;DHT22;53568;52.164;4.472;2022-09-17T09:14:32;14.29;70.46
66670;DHT22;53568;52.164;4.472;2022-09-17T09:17:06;14.45;69.84
66670;DHT22;53568;52.164;4.472;2022-09-17T09:19:42;14.52;68.46
66670;DHT22;53568;52.164;4.472;2022-09-17T09:22:39;14.58;67.73
66670;DHT22;53568;52.164;4.472;2022-09-17T09:30:58;14.93;62.85
66670;DHT22;53568;52.164;4.472;2022-09-17T09:33:34;15.06;60.05
66670;DHT22;53568;52.164;4.472;2022-09-17T09:36:06;15.31;59.78
66670;DHT22;53568;52.164;4.472;2022-09-17T09:38:37;15.47;58.56
66670;DHT22;53568;52.164;4.472;2022-09-17T09:43:45;15.65;56.37
66670;DHT22;53568;52.164;4.472;2022-09-17T09:54:34;14.92;64.08
66670;DHT22;53568;52.164;4.472;2022-09-17T09:57:12;14.92;64.25
66670;DHT22;53568;52.164;4.472;2022-09-17T09:59:38;14.95;63.74
66670;DHT22;53568;52.164;4.472;2022-09-17T10:02:06;15.08;62.04
66670;DHT22;53568;52.164;4.472;2022-09-17T10:04:31;15.06;59.35
66670;DHT22;53568;52.164;4.472;2022-09-17T10:09:32;15.24;59.39
66670;DHT22;53568;52.164;4.472;2022-09-17T10:14:36;14.58;58.35
66670;DHT22;53568;52.164;4.472;2022-09-17T10:19:39;14.42;59.59
66670;DHT22;53568;52.164;4.472;2022-09-17T10:22:29;14.46;59.97
66670;DHT22;53568;52.164;4.472;2022-09-17T10:24:58;14.71;60.51
66670;DHT22;53568;52.164;4.472;2022-09-17T10:27:26;14.80;60.15
66670;DHT22;53568;52.164;4.472;2022-09-17T10:30:15;15.24;60.80
66670;DHT22;53568;52.164;4.472;2022-09-17T10:32:42;15.57;60.73
66670;DHT22;53568;52.164;4.472;2022-09-17T10:37:46;15.75;57.19
66670;DHT22;53568;52.164;4.472;2022-09-17T10:43:12;15.91;52.98
66670;DHT22;53568;52.164;4.472;2022-09-17T10:45:37;16.08;50.39
66670;DHT22;53568;52.164;4.472;2022-09-17T10:48:04;16.08;47.05
66670;DHT22;53568;52.164;4.472;2022-09-17T10:50:31;16.15;46.68
66670;DHT22;53568;52.164;4.472;2022-09-17T10:53:05;16.35;45.06
66670;DHT22;53568;52.164;4.472;2022-09-17T10:56:28;16.25;43.90
66670;DHT22;53568;52.164;4.472;2022-09-17T11:01:27;16.52;46.76
66670;DHT22;53568;52.164;4.472;2022-09-17T11:12:10;16.35;51.06
66670;DHT22;53568;52.164;4.472;2022-09-17T11:20:02;15.94;50.55
66670;DHT22;53568;52.164;4.472;2022-09-17T11:25:22;15.98;47.04
66670;DHT22;53568;52.164;4.472;2022-09-17T11:36:26;16.39;44.75
66670;DHT22;53568;52.164;4.472;2022-09-17T11:38:59;16.45;41.60
66670;DHT22;53568;52.164;4.472;2022-09-17T11:41:41;16.45;40.41
66670;DHT22;53568;52.164;4.472;2022-09-17T11:46:44;16.19;42.95
66670;DHT22;53568;52.164;4.472;2022-09-17T11:49:22;16.41;42.76
66670;DHT22;53568;52.164;4.472;2022-09-17T11:51:59;16.48;42.19
66670;DHT22;53568;52.164;4.472;2022-09-17T12:00:02;16.22;43.00
66670;DHT22;53568;52.164;4.472;2022-09-17T12:02:55;16.33;43.87
66670;DHT22;53568;52.164;4.472;2022-09-17T12:05:28;16.49;43.18
66670;DHT22;53568;52.164;4.472;2022-09-17T12:08:12;16.44;42.99
66670;DHT22;53568;52.164;4.472;2022-09-17T12:16:02;16.41;42.75
66670;DHT22;53568;52.164;4.472;2022-09-17T12:18:55;16.44;43.64
66670;DHT22;53568;52.164;4.472;2022-09-17T12:21:40;16.55;43.59
66670;DHT22;53568;52.164;4.472;2022-09-17T12:24:27;16.30;42.87
66670;DHT22;53568;52.164;4.472;2022-09-17T12:32:44;16.56;45.75
66670;DHT22;53568;52.164;4.472;2022-09-17T12:38:26;16.55;46.23
66670;DHT22;53568;52.164;4.472;2022-09-17T12:47:04;16.69;46.37
66670;DHT22;53568;52.164;4.472;2022-09-17T12:49:52;16.58;48.10
66670;DHT22;53568;52.164;4.472;2022-09-17T13:00:07;16.75;51.19
66670;DHT22;53568;52.164;4.472;2022-09-17T13:11:01;16.60;51.62
66670;DHT22;53568;52.164;4.472;2022-09-17T13:13:48;16.56;51.84
66670;DHT22;53568;52.164;4.472;2022-09-17T13:22:00;16.60;47.66
66670;DHT22;53568;52.164;4.472;2022-09-17T13:24:30;16.69;49.03
66670;DHT22;53568;52.164;4.472;2022-09-17T13:26:59;16.65;50.47
66670;DHT22;53568;52.164;4.472;2022-09-17T13:37:53;15.84;57.77
66670;DHT22;53568;52.164;4.472;2022-09-17T13:40:32;15.67;58.16
66670;DHT22;53568;52.164;4.472;2022-09-17T13:43:11;15.65;55.55
66670;DHT22;53568;52.164;4.472;2022-09-17T13:48:28;15.91;51.74
66670;DHT22;53568;52.164;4.472;2022-09-17T13:50:55;15.95;51.39
66670;DHT22;53568;52.164;4.472;2022-09-17T13:53:25;15.98;52.82
66670;DHT22;53568;52.164;4.472;2022-09-17T13:55:58;16.06;54.93
66670;DHT22;53568;52.164;4.472;2022-09-17T13:58:29;16.19;55.71
66670;DHT22;53568;52.164;4.472;2022-09-17T14:00:59;16.29;54.44
66670;DHT22;53568;52.164;4.472;2022-09-17T14:16:45;16.52;47.31
66670;DHT22;53568;52.164;4.472;2022-09-17T14:21:42;16.69;47.43
66670;DHT22;53568;52.164;4.472;2022-09-17T14:24:21;16.76;46.91
66670;DHT22;53568;52.164;4.472;2022-09-17T14:27:13;16.60;44.41
66670;DHT22;53568;52.164;4.472;2022-09-17T14:29:58;16.52;46.05
66670;DHT22;53568;52.164;4.472;2022-09-17T14:37:46;16.86;48.13
66670;DHT22;53568;52.164;4.472;2022-09-17T14:40:18;16.80;49.59
66670;DHT22;53568;52.164;4.472;2022-09-17T14:42:48;16.89;49.64
66670;DHT22;53568;52.164;4.472;2022-09-17T14:45:40;16.65;50.41
66670;DHT22;53568;52.164;4.472;2022-09-17T14:48:30;16.60;49.86
66670;DHT22;53568;52.164;4.472;2022-09-17T14:53:48;16.56;49.73
66670;DHT22;53568;52.164;4.472;2022-09-17T14:56:21;16.42;49.93
66670;DHT22;53568;52.164;4.472;2022-09-17T14:58:52;16.55;49.46
66670;DHT22;53568;52.164;4.472;2022-09-17T15:01:27;16.58;50.14
66670;DHT22;53568;52.164;4.472;2022-09-17T15:06:38;16.45;50.03
66670;DHT22;53568;52.164;4.472;2022-09-17T15:09:05;16.38;50.26
66670;DHT22;53568;52.164;4.472;2022-09-17T15:11:40;16.35;50.09
66670;DHT22;53568;52.164;4.472;2022-09-17T15:14:15;16.14;51.46
66670;DHT22;53568;52.164;4.472;2022-09-17T15:16:53;16.22;48.66
66670;DHT22;53568;52.164;4.472;2022-09-17T15:19:40;16.15;48.42
66670;DHT22;53568;52.164;4.472;2022-09-17T15:22:22;16.22;47.79
66670;DHT22;53568;52.164;4.472;2022-09-17T15:24:49;16.18;48.58
66670;DHT22;53568;52.164;4.472;2022-09-17T15:27:23;16.21;49.38
66670;DHT22;53568;52.164;4.472;2022-09-17T15:30:09;16.21;49.92
66670;DHT22;53568;52.164;4.472;2022-09-17T15:32:36;16.21;51.02
66670;DHT22;53568;52.164;4.472;2022-09-17T15:40:22;15.88;59.67
66670;DHT22;53568;52.164;4.472;2022-09-17T15:42:54;15.50;61.58
66670;DHT22;53568;52.164;4.472;2022-09-17T15:45:31;15.17;62.42
66670;DHT22;53568;52.164;4.472;2022-09-17T15:48:00;14.76;64.34
66670;DHT22;53568;52.164;4.472;2022-09-17T15:50:28;14.46;64.25
66670;DHT22;53568;52.164;4.472;2022-09-17T15:53:26;14.48;65.35
66670;DHT22;53568;52.164;4.472;2022-09-17T15:56:02;14.72;64.56
66670;DHT22;53568;52.164;4.472;2022-09-17T15:58:55;14.96;64.92
66670;DHT22;53568;52.164;4.472;2022-09-17T16:11:57;15.16;60.13
66670;DHT22;53568;52.164;4.472;2022-09-17T16:14:22;15.17;61.30
66670;DHT22;53568;52.164;4.472;2022-09-17T16:16:47;15.27;62.27
66670;DHT22;53568;52.164;4.472;2022-09-17T16:19:13;15.14;64.62
66670;DHT22;53568;52.164;4.472;2022-09-17T16:21:38;15.13;63.87
66670;DHT22;53568;52.164;4.472;2022-09-17T16:24:04;15.00;65.99
66670;DHT22;53568;52.164;4.472;2022-09-17T16:26:32;14.83;67.10
66670;DHT22;53568;52.164;4.472;2022-09-17T16:29:04;14.75;69.40
66670;DHT22;53568;52.164;4.472;2022-09-17T16:31:32;14.59;70.57
66670;DHT22;53568;52.164;4.472;2022-09-17T16:33:58;14.41;72.40
66670;DHT22;53568;52.164;4.472;2022-09-17T16:36:23;14.39;72.22
66670;DHT22;53568;52.164;4.472;2022-09-17T16:38:49;14.09;72.94
66670;DHT22;53568;52.164;4.472;2022-09-17T16:41:14;14.12;73.52
66670;DHT22;53568;52.164;4.472;2022-09-17T16:43:40;14.11;73.94
66670;DHT22;53568;52.164;4.472;2022-09-17T16:46:09;14.09;73.72
66670;DHT22;53568;52.164;4.472;2022-09-17T16:48:36;14.02;72.87
66670;DHT22;53568;52.164;4.472;2022-09-17T16:51:09;14.11;73.35
66670;DHT22;53568;52.164;4.472;2022-09-17T16:53:35;14.11;74.38
66670;DHT22;53568;52.164;4.472;2022-09-17T16:56:08;14.07;73.16
66670;DHT22;53568;52.164;4.472;2022-09-17T16:58:33;14.05;73.02
66670;DHT22;53568;52.164;4.472;2022-09-17T17:01:13;14.11;72.50
66670;DHT22;53568;52.164;4.472;2022-09-17T17:03:39;14.17;72.83
66670;DHT22;53568;52.164;4.472;2022-09-17T17:06:05;14.18;70.63
66670;DHT22;53568;52.164;4.472;2022-09-17T17:08:32;14.15;66.87
66670;DHT22;53568;52.164;4.472;2022-09-17T17:10:58;14.17;66.96
66670;DHT22;53568;52.164;4.472;2022-09-17T17:13:24;14.24;66.86
66670;DHT22;53568;52.164;4.472;2022-09-17T17:15:52;14.33;67.29
66670;DHT22;53568;52.164;4.472;2022-09-17T17:18:21;14.33;67.24
66670;DHT22;53568;52.164;4.472;2022-09-17T17:20:46;14.39;67.00
66670;DHT22;53568;52.164;4.472;2022-09-17T17:23:13;14.55;66.35
66670;DHT22;53568;52.164;4.472;2022-09-17T17:25:38;14.55;66.62
66670;DHT22;53568;52.164;4.472;2022-09-17T17:28:04;14.58;66.81
66670;DHT22;53568;52.164;4.472;2022-09-17T17:30:29;14.65;66.56
66670;DHT22;53568;52.164;4.472;2022-09-17T17:32:55;14.73;66.65
66670;DHT22;53568;52.164;4.472;2022-09-17T17:35:20;14.69;66.49
66670;DHT22;53568;52.164;4.472;2022-09-17T17:37:46;14.76;66.25
66670;DHT22;53568;52.164;4.472;2022-09-17T17:40:12;14.89;66.12
66670;DHT22;53568;52.164;4.472;2022-09-17T17:42:38;14.92;66.46
66670;DHT22;53568;52.164;4.472;2022-09-17T17:45:08;14.90;66.23
66670;DHT22;53568;52.164;4.472;2022-09-17T17:47:35;14.72;68.63
66670;DHT22;53568;52.164;4.472;2022-09-17T17:50:02;14.39;71.63
66670;DHT22;53568;52.164;4.472;2022-09-17T17:52:27;14.09;69.92
66670;DHT22;53568;52.164;4.472;2022-09-17T17:54:53;13.81;70.86
66670;DHT22;53568;52.164;4.472;2022-09-17T17:57:18;13.73;70.04
66670;DHT22;53568;52.164;4.472;2022-09-17T17:59:44;13.61;70.06
66670;DHT22;53568;52.164;4.472;2022-09-17T18:02:10;13.73;70.40
66670;DHT22;53568;52.164;4.472;2022-09-17T18:04:36;13.74;70.77
66670;DHT22;53568;52.164;4.472;2022-09-17T18:07:02;13.79;71.05
66670;DHT22;53568;52.164;4.472;2022-09-17T18:09:27;13.95;71.28
66670;DHT22;53568;52.164;4.472;2022-09-17T18:11:53;14.00;71.47
66670;DHT22;53568;52.164;4.472;2022-09-17T18:14:19;14.07;71.75
66670;DHT22;53568;52.164;4.472;2022-09-17T18:16:44;14.18;71.46
66670;DHT22;53568;52.164;4.472;2022-09-17T18:19:10;14.22;70.90
66670;DHT22;53568;52.164;4.472;2022-09-17T18:21:36;14.36;69.65
66670;DHT22;53568;52.164;4.472;2022-09-17T18:24:02;13.98;76.15
66670;DHT22;53568;52.164;4.472;2022-09-17T18:26:28;13.58;77.98
66670;DHT22;53568;52.164;4.472;2022-09-17T18:28:54;13.50;79.32
66670;DHT22;53568;52.164;4.472;2022-09-17T18:31:25;13.44;78.84
66670;DHT22;53568;52.164;4.472;2022-09-17T18:36:26;13.40;76.69
66670;DHT22;53568;52.164;4.472;2022-09-17T18:38:53;13.41;75.80
66670;DHT22;53568;52.164;4.472;2022-09-17T18:41:19;13.50;72.40
66670;DHT22;53568;52.164;4.472;2022-09-17T18:43:45;13.50;71.16
66670;DHT22;53568;52.164;4.472;2022-09-17T18:46:10;13.71;70.58
66670;DHT22;53568;52.164;4.472;2022-09-17T18:48:35;13.79;70.61
66670;DHT22;53568;52.164;4.472;2022-09-17T18:51:07;13.89;69.17
66670;DHT22;53568;52.164;4.472;2022-09-17T18:53:36;14.07;69.45
66670;DHT22;53568;52.164;4.472;2022-09-17T18:56:21;14.19;69.72
66670;DHT22;53568;52.164;4.472;2022-09-17T18:58:49;14.38;69.58
66670;DHT22;53568;52.164;4.472;2022-09-17T19:01:15;14.51;69.67
66670;DHT22;53568;52.164;4.472;2022-09-17T19:03:41;14.59;69.80
66670;DHT22;53568;52.164;4.472;2022-09-17T19:06:09;14.65;69.74